Terminal Aerodrome Forecast
Issued by NWS Memphis, TN

Home | Current Version | Previous Version | Text Only | Print | Product List | Glossary On
Versions: 1 2 3 4 5 6 7 8 9 10 11 12 13 14 15 16 17 18 19 20 21 22 23 24 25 26 27 28 29 30 31 32 33
461
FTUS44 KMEG 240859 AAA
TAFMEM
TAF AMD
KMEM 240859Z 2409/2512 32005KT 5SM BR BKN005 OVC012
     FM241400 32007KT P6SM SCT007 OVC010
     FM241800 33009KT P6SM VCSH BKN025 OVC045
     FM250100 33005KT P6SM FEW030 BKN045=

USA.gov is the U.S. government's official web portal to all federal, state and local government web resources and services.